Terminal Aerodrome Forecast
Issued by NWS Northern Indiana

Home | Current Version | Previous Version | Text Only | Print | Product List | Glossary Off
Versions: 1 2 3 4 5 6 7 8 9 10 11 12

000
FTUS43 KIWX 021724
TAFFWA
TAF
KFWA 021724Z 0218/0318 06010KT P6SM BKN015 BKN040
     FM021900 06010KT P6SM SCT015 BKN040
     FM022200 05008KT P6SM SCT040=

USA.gov is the U.S. government's official web portal to all federal, state and local government web resources and services.